sensor_id;sensor_type;location;lat;lon;timestamp;temperature;humidity
1055;DHT22;516;51.482;7.120;2023-02-28T00:02:18;-1.00;99.90
1055;DHT22;516;51.482;7.120;2023-02-28T00:04:44;-0.70;99.90
1055;DHT22;516;51.482;7.120;2023-02-28T00:10:32;-0.60;99.90
1055;DHT22;516;51.482;7.120;2023-02-28T00:16:21;-0.60;99.90
1055;DHT22;516;51.482;7.120;2023-02-28T00:22:10;-0.30;98.50
1055;DHT22;516;51.482;7.120;2023-02-28T00:27:57;-0.50;97.70
1055;DHT22;516;51.482;7.120;2023-02-28T00:33:45;-0.70;99.90
1055;DHT22;516;51.482;7.120;2023-02-28T00:39:37;-1.00;99.90
1055;DHT22;516;51.482;7.120;2023-02-28T00:45:25;-1.40;99.90
1055;DHT22;516;51.482;7.120;2023-02-28T00:51:12;-1.40;99.90
1055;DHT22;516;51.482;7.120;2023-02-28T00:57:00;-1.50;99.90
1055;DHT22;516;51.482;7.120;2023-02-28T01:06:51;-1.30;99.90
1055;DHT22;516;51.482;7.120;2023-02-28T01:12:38;-1.30;99.90
1055;DHT22;516;51.482;7.120;2023-02-28T01:18:26;-1.20;99.90
1055;DHT22;516;51.482;7.120;2023-02-28T01:24:14;-1.50;99.90
1055;DHT22;516;51.482;7.120;2023-02-28T01:30:02;-1.70;99.90
1055;DHT22;516;51.482;7.120;2023-02-28T01:36:00;-1.70;99.90
1055;DHT22;516;51.482;7.120;2023-02-28T01:42:23;-2.10;99.90
1055;DHT22;516;51.482;7.120;2023-02-28T01:48:10;-2.30;99.90
1055;DHT22;516;51.482;7.120;2023-02-28T01:54:03;-2.50;99.90
1055;DHT22;516;51.482;7.120;2023-02-28T01:59:57;-2.50;99.90
1055;DHT22;516;51.482;7.120;2023-02-28T02:09:07;-2.90;99.90
1055;DHT22;516;51.482;7.120;2023-02-28T02:15:04;-2.90;99.90
1055;DHT22;516;51.482;7.120;2023-02-28T02:45:57;-3.10;99.90
1055;DHT22;516;51.482;7.120;2023-02-28T02:52:09;-3.10;99.90
1055;DHT22;516;51.482;7.120;2023-02-28T02:58:02;-3.30;99.90
1055;DHT22;516;51.482;7.120;2023-02-28T03:03:51;-3.30;99.90
1055;DHT22;516;51.482;7.120;2023-02-28T03:09:38;-3.30;99.90
1055;DHT22;516;51.482;7.120;2023-02-28T03:22:23;-3.30;99.90
1055;DHT22;516;51.482;7.120;2023-02-28T03:28:39;-3.40;99.90
1055;DHT22;516;51.482;7.120;2023-02-28T03:35:03;-3.40;99.90
1055;DHT22;516;51.482;7.120;2023-02-28T03:41:32;-3.10;99.90
1055;DHT22;516;51.482;7.120;2023-02-28T03:47:31;-3.00;99.90
1055;DHT22;516;51.482;7.120;2023-02-28T03:53:33;-3.10;99.90
1055;DHT22;516;51.482;7.120;2023-02-28T03:59:28;-3.30;99.90
1055;DHT22;516;51.482;7.120;2023-02-28T04:05:16;-3.40;99.90
1055;DHT22;516;51.482;7.120;2023-02-28T04:11:07;-3.50;99.90
1055;DHT22;516;51.482;7.120;2023-02-28T04:16:55;-3.60;99.90
1055;DHT22;516;51.482;7.120;2023-02-28T04:22:43;-3.50;99.90
1055;DHT22;516;51.482;7.120;2023-02-28T04:28:30;-3.30;99.90
1055;DHT22;516;51.482;7.120;2023-02-28T04:34:18;-3.10;99.90
1055;DHT22;516;51.482;7.120;2023-02-28T04:40:07;-3.40;99.90
1055;DHT22;516;51.482;7.120;2023-02-28T04:45:56;-3.40;99.90
1055;DHT22;516;51.482;7.120;2023-02-28T04:51:44;-3.10;99.90
1055;DHT22;516;51.482;7.120;2023-02-28T04:57:32;-3.30;99.90
1055;DHT22;516;51.482;7.120;2023-02-28T05:03:20;-3.70;99.90
1055;DHT22;516;51.482;7.120;2023-02-28T05:13:11;-3.70;99.90
1055;DHT22;516;51.482;7.120;2023-02-28T05:18:59;-3.20;99.90
1055;DHT22;516;51.482;7.120;2023-02-28T05:24:47;-2.80;99.90
1055;DHT22;516;51.482;7.120;2023-02-28T05:30:34;-2.90;99.90
1055;DHT22;516;51.482;7.120;2023-02-28T05:36:23;-3.00;99.90
1055;DHT22;516;51.482;7.120;2023-02-28T05:42:10;-3.20;99.90
1055;DHT22;516;51.482;7.120;2023-02-28T05:47:58;-3.40;99.90
1055;DHT22;516;51.482;7.120;2023-02-28T05:53:46;-3.30;99.90
1055;DHT22;516;51.482;7.120;2023-02-28T05:59:35;-3.60;99.90
1055;DHT22;516;51.482;7.120;2023-02-28T06:05:27;-4.00;99.90
1055;DHT22;516;51.482;7.120;2023-02-28T06:11:04;-4.00;99.90
1055;DHT22;516;51.482;7.120;2023-02-28T06:16:52;-4.00;99.90
1055;DHT22;516;51.482;7.120;2023-02-28T06:22:40;-4.10;99.90
1055;DHT22;516;51.482;7.120;2023-02-28T06:28:27;-4.10;99.90
1055;DHT22;516;51.482;7.120;2023-02-28T06:34:16;-4.10;99.90
1055;DHT22;516;51.482;7.120;2023-02-28T06:40:04;-4.00;99.90
1055;DHT22;516;51.482;7.120;2023-02-28T06:45:56;-4.00;99.90
1055;DHT22;516;51.482;7.120;2023-02-28T06:51:44;-3.90;99.90
1055;DHT22;516;51.482;7.120;2023-02-28T06:57:33;-3.90;99.90
1055;DHT22;516;51.482;7.120;2023-02-28T07:03:22;-3.70;99.90
1055;DHT22;516;51.482;7.120;2023-02-28T07:13:10;-3.40;99.90
1055;DHT22;516;51.482;7.120;2023-02-28T07:18:57;-3.10;99.90
1055;DHT22;516;51.482;7.120;2023-02-28T07:24:45;-1.60;99.90
1055;DHT22;516;51.482;7.120;2023-02-28T07:30:33;1.20;58.50
1055;DHT22;516;51.482;7.120;2023-02-28T07:36:21;2.70;12.10
1055;DHT22;516;51.482;7.120;2023-02-28T07:42:09;3.00;7.10
1055;DHT22;516;51.482;7.120;2023-02-28T07:47:59;3.60;4.20
1055;DHT22;516;51.482;7.120;2023-02-28T07:53:46;3.90;1.70
1055;DHT22;516;51.482;7.120;2023-02-28T07:59:34;4.40;1.00
1055;DHT22;516;51.482;7.120;2023-02-28T08:05:22;2.00;7.60
1055;DHT22;516;51.482;7.120;2023-02-28T08:11:04;1.80;7.70
1055;DHT22;516;51.482;7.120;2023-02-28T08:16:52;1.70;6.20
1055;DHT22;516;51.482;7.120;2023-02-28T08:22:40;4.70;3.10
1055;DHT22;516;51.482;7.120;2023-02-28T08:28:29;6.10;1.00
1055;DHT22;516;51.482;7.120;2023-02-28T08:34:17;7.40;1.00
1055;DHT22;516;51.482;7.120;2023-02-28T08:40:05;7.10;1.00
1055;DHT22;516;51.482;7.120;2023-02-28T08:45:54;8.20;1.00
1055;DHT22;516;51.482;7.120;2023-02-28T08:51:44;9.10;1.00
1055;DHT22;516;51.482;7.120;2023-02-28T08:57:32;8.60;1.00
1055;DHT22;516;51.482;7.120;2023-02-28T09:03:21;7.20;1.00
1055;DHT22;516;51.482;7.120;2023-02-28T09:13:11;9.50;1.00
1055;DHT22;516;51.482;7.120;2023-02-28T09:18:58;8.50;1.00
1055;DHT22;516;51.482;7.120;2023-02-28T09:24:46;9.50;1.00
1055;DHT22;516;51.482;7.120;2023-02-28T09:30:34;9.60;1.00
1055;DHT22;516;51.482;7.120;2023-02-28T09:36:23;9.00;1.00
1055;DHT22;516;51.482;7.120;2023-02-28T09:42:21;10.10;1.00
1055;DHT22;516;51.482;7.120;2023-02-28T09:48:41;10.50;1.00
1055;DHT22;516;51.482;7.120;2023-02-28T09:54:32;10.80;1.00
1055;DHT22;516;51.482;7.120;2023-02-28T10:00:24;10.90;1.00
1055;DHT22;516;51.482;7.120;2023-02-28T10:06:18;10.10;1.00
1055;DHT22;516;51.482;7.120;2023-02-28T10:15:31;10.00;1.00
1055;DHT22;516;51.482;7.120;2023-02-28T10:21:00;11.90;1.00
1055;DHT22;516;51.482;7.120;2023-02-28T10:26:49;10.40;1.00
1055;DHT22;516;51.482;7.120;2023-02-28T10:32:40;6.40;1.00
1055;DHT22;516;51.482;7.120;2023-02-28T10:38:38;7.20;1.00
1055;DHT22;516;51.482;7.120;2023-02-28T10:44:26;10.00;1.00
1055;DHT22;516;51.482;7.120;2023-02-28T10:50:37;10.30;1.00
1055;DHT22;516;51.482;7.120;2023-02-28T10:56:29;10.10;1.00
1055;DHT22;516;51.482;7.120;2023-02-28T11:02:35;10.20;1.00
1055;DHT22;516;51.482;7.120;2023-02-28T11:08:25;10.40;1.00
1055;DHT22;516;51.482;7.120;2023-02-28T11:10:57;11.40;1.00
1055;DHT22;516;51.482;7.120;2023-02-28T11:13:29;10.90;1.00
1055;DHT22;516;51.482;7.120;2023-02-28T11:19:45;11.40;1.00
1055;DHT22;516;51.482;7.120;2023-02-28T11:35:33;10.30;1.00
1055;DHT22;516;51.482;7.120;2023-02-28T11:53:19;10.70;1.00
1055;DHT22;516;51.482;7.120;2023-02-28T12:29:41;12.10;1.00
1055;DHT22;516;51.482;7.120;2023-02-28T12:35:59;13.10;1.00
1055;DHT22;516;51.482;7.120;2023-02-28T12:41:59;12.40;1.00
1055;DHT22;516;51.482;7.120;2023-02-28T12:48:10;12.20;1.00
1055;DHT22;516;51.482;7.120;2023-02-28T12:54:04;10.50;1.00
1055;DHT22;516;51.482;7.120;2023-02-28T13:00:04;12.80;1.00
1055;DHT22;516;51.482;7.120;2023-02-28T13:16:06;12.20;1.00
1055;DHT22;516;51.482;7.120;2023-02-28T13:21:56;13.00;1.00
1055;DHT22;516;51.482;7.120;2023-02-28T13:27:45;14.20;1.00
1055;DHT22;516;51.482;7.120;2023-02-28T13:33:36;11.40;1.00
1055;DHT22;516;51.482;7.120;2023-02-28T13:39:57;10.70;1.00
1055;DHT22;516;51.482;7.120;2023-02-28T13:46:10;9.90;1.00
1055;DHT22;516;51.482;7.120;2023-02-28T13:52:20;9.80;1.00
1055;DHT22;516;51.482;7.120;2023-02-28T14:16:47;11.40;1.00
1055;DHT22;516;51.482;7.120;2023-02-28T14:22:43;12.00;1.00
1055;DHT22;516;51.482;7.120;2023-02-28T14:29:20;11.30;1.00
1055;DHT22;516;51.482;7.120;2023-02-28T14:36:03;11.30;1.00
1055;DHT22;516;51.482;7.120;2023-02-28T14:41:51;11.20;1.00
1055;DHT22;516;51.482;7.120;2023-02-28T14:47:39;11.80;1.00
1055;DHT22;516;51.482;7.120;2023-02-28T14:53:35;11.60;1.00
1055;DHT22;516;51.482;7.120;2023-02-28T14:59:32;11.90;1.00
1055;DHT22;516;51.482;7.120;2023-02-28T15:05:31;11.00;1.00
1055;DHT22;516;51.482;7.120;2023-02-28T15:21:30;10.90;1.00
1055;DHT22;516;51.482;7.120;2023-02-28T15:27:44;10.70;1.00
1055;DHT22;516;51.482;7.120;2023-02-28T15:34:02;9.60;1.00
1055;DHT22;516;51.482;7.120;2023-02-28T15:46:06;8.80;1.00
1055;DHT22;516;51.482;7.120;2023-02-28T15:51:57;7.60;1.00
1055;DHT22;516;51.482;7.120;2023-02-28T15:57:48;8.10;1.00
1055;DHT22;516;51.482;7.120;2023-02-28T16:03:48;8.00;1.00
1055;DHT22;516;51.482;7.120;2023-02-28T16:10:12;7.90;1.00
1055;DHT22;516;51.482;7.120;2023-02-28T16:16:01;7.90;1.00
1055;DHT22;516;51.482;7.120;2023-02-28T16:25:04;8.00;1.00
1055;DHT22;516;51.482;7.120;2023-02-28T16:30:54;7.70;1.00
1055;DHT22;516;51.482;7.120;2023-02-28T16:36:42;7.00;1.00
1055;DHT22;516;51.482;7.120;2023-02-28T16:42:31;6.60;1.00
1055;DHT22;516;51.482;7.120;2023-02-28T16:48:19;5.30;1.00
1055;DHT22;516;51.482;7.120;2023-02-28T16:54:06;4.90;1.00
1055;DHT22;516;51.482;7.120;2023-02-28T16:59:54;4.70;1.00
1055;DHT22;516;51.482;7.120;2023-02-28T17:05:42;4.60;1.00
1055;DHT22;516;51.482;7.120;2023-02-28T17:11:30;4.40;1.00
1055;DHT22;516;51.482;7.120;2023-02-28T17:17:17;4.10;1.00
1055;DHT22;516;51.482;7.120;2023-02-28T17:23:06;3.90;1.00
1055;DHT22;516;51.482;7.120;2023-02-28T17:28:55;3.90;1.00
1055;DHT22;516;51.482;7.120;2023-02-28T17:34:43;3.60;1.00
1055;DHT22;516;51.482;7.120;2023-02-28T17:40:31;3.50;1.00
1055;DHT22;516;51.482;7.120;2023-02-28T17:46:23;3.40;1.00
1055;DHT22;516;51.482;7.120;2023-02-28T17:52:11;3.30;1.00
1055;DHT22;516;51.482;7.120;2023-02-28T17:57:59;3.00;1.00
1055;DHT22;516;51.482;7.120;2023-02-28T18:03:48;2.70;1.00
1055;DHT22;516;51.482;7.120;2023-02-28T18:09:35;2.70;1.00
1055;DHT22;516;51.482;7.120;2023-02-28T18:25:39;2.20;1.00
1055;DHT22;516;51.482;7.120;2023-02-28T18:31:27;2.10;1.00
1055;DHT22;516;51.482;7.120;2023-02-28T18:37:14;2.00;1.00
1055;DHT22;516;51.482;7.120;2023-02-28T18:43:04;1.50;4.40
1055;DHT22;516;51.482;7.120;2023-02-28T18:48:52;1.10;13.40
1055;DHT22;516;51.482;7.120;2023-02-28T18:54:38;0.80;20.60
1055;DHT22;516;51.482;7.120;2023-02-28T19:00:26;0.70;27.20
1055;DHT22;516;51.482;7.120;2023-02-28T19:06:14;0.60;42.60
1055;DHT22;516;51.482;7.120;2023-02-28T19:12:02;0.70;37.60
1055;DHT22;516;51.482;7.120;2023-02-28T19:14:45;0.60;37.50
1055;DHT22;516;51.482;7.120;2023-02-28T19:17:11;0.80;35.60
1055;DHT22;516;51.482;7.120;2023-02-28T19:23:00;0.70;28.20
1055;DHT22;516;51.482;7.120;2023-02-28T19:28:48;0.80;27.90
1055;DHT22;516;51.482;7.120;2023-02-28T19:34:36;0.70;28.70
1055;DHT22;516;51.482;7.120;2023-02-28T19:40:23;0.30;41.50
1055;DHT22;516;51.482;7.120;2023-02-28T19:46:11;0.40;52.00
1055;DHT22;516;51.482;7.120;2023-02-28T19:51:59;0.30;47.10
1055;DHT22;516;51.482;7.120;2023-02-28T19:57:47;0.20;57.00
1055;DHT22;516;51.482;7.120;2023-02-28T20:03:35;0.20;57.60
1055;DHT22;516;51.482;7.120;2023-02-28T20:09:23;0.00;64.80
1055;DHT22;516;51.482;7.120;2023-02-28T20:25:06;0.30;50.10
1055;DHT22;516;51.482;7.120;2023-02-28T20:30:54;-0.10;61.70
1055;DHT22;516;51.482;7.120;2023-02-28T20:36:42;-0.40;57.30
1055;DHT22;516;51.482;7.120;2023-02-28T20:42:30;-0.40;69.30
1055;DHT22;516;51.482;7.120;2023-02-28T20:48:18;-0.60;69.00
1055;DHT22;516;51.482;7.120;2023-02-28T20:54:07;-0.80;88.80
1055;DHT22;516;51.482;7.120;2023-02-28T20:59:56;-0.90;84.70
1055;DHT22;516;51.482;7.120;2023-02-28T21:05:43;-1.00;93.00
1055;DHT22;516;51.482;7.120;2023-02-28T21:11:33;-1.10;96.20
1055;DHT22;516;51.482;7.120;2023-02-28T21:17:09;-1.10;98.80
1055;DHT22;516;51.482;7.120;2023-02-28T21:22:57;-1.20;99.90
1055;DHT22;516;51.482;7.120;2023-02-28T21:28:53;-1.30;99.90
1055;DHT22;516;51.482;7.120;2023-02-28T21:34:41;-1.50;99.90
1055;DHT22;516;51.482;7.120;2023-02-28T21:40:29;-1.50;99.90
1055;DHT22;516;51.482;7.120;2023-02-28T21:46:20;-1.70;99.90
1055;DHT22;516;51.482;7.120;2023-02-28T21:52:07;-1.70;99.90
1055;DHT22;516;51.482;7.120;2023-02-28T21:57:36;-1.70;99.90
1055;DHT22;516;51.482;7.120;2023-02-28T22:03:24;-1.90;99.90
1055;DHT22;516;51.482;7.120;2023-02-28T22:09:13;-1.80;99.90
1055;DHT22;516;51.482;7.120;2023-02-28T22:25:05;-1.80;99.90
1055;DHT22;516;51.482;7.120;2023-02-28T22:30:53;-1.40;99.90
1055;DHT22;516;51.482;7.120;2023-02-28T22:36:41;-1.20;99.90
1055;DHT22;516;51.482;7.120;2023-02-28T22:42:32;-1.40;99.90
1055;DHT22;516;51.482;7.120;2023-02-28T22:48:20;-1.30;99.90
1055;DHT22;516;51.482;7.120;2023-02-28T22:54:08;-1.60;99.90
1055;DHT22;516;51.482;7.120;2023-02-28T22:59:56;-1.80;99.90
1055;DHT22;516;51.482;7.120;2023-02-28T23:05:44;-2.00;99.90
1055;DHT22;516;51.482;7.120;2023-02-28T23:11:35;-1.90;99.90
1055;DHT22;516;51.482;7.120;2023-02-28T23:17:10;-1.90;99.90
1055;DHT22;516;51.482;7.120;2023-02-28T23:22:58;-2.00;99.90
1055;DHT22;516;51.482;7.120;2023-02-28T23:28:46;-2.30;99.90
1055;DHT22;516;51.482;7.120;2023-02-28T23:34:34;-2.20;99.90
1055;DHT22;516;51.482;7.120;2023-02-28T23:40:22;-2.30;99.90
1055;DHT22;516;51.482;7.120;2023-02-28T23:46:11;-2.60;99.90
1055;DHT22;516;51.482;7.120;2023-02-28T23:51:59;-2.60;99.90
1055;DHT22;516;51.482;7.120;2023-02-28T23:57:48;-2.70;99.90
